Itaju do Colonia, Brazil
Current Conditions -  °F | °C
As of 10:00 AM on Monday 24 Nov 2014 (Local Time) from SBIL Reporting Station
Scattered Clouds Scattered Clouds  
Wind Chill: 82°   Ceiling: Unl
Heat Index: 88°   Visibility: 6mi
Dew Point: 73°   Wind: 7mph
Humidity: 74%   Direction: 40°NE
Pressure: 30"   Gusts: NA
Location:  15.14°S, 39.72°W
Report Text: SBIL 241300Z 04006KT 9999 SCT025 SCT070 28/23 Q1016
Loading
Personal Weather Stations






























Interactive Weather Map New forecast layout! Learn more

10-Day Weather Forecast

Advertisements
Track Severe Weather on mobile